createdAt,value
2022-08-16T00:02:31.401Z,99601.50
2022-08-16T00:04:59.902Z,99605.66
2022-08-16T00:07:29.193Z,99610.47
2022-08-16T00:09:58.796Z,99599.50
2022-08-16T00:12:28.013Z,99600.50
2022-08-16T00:14:56.429Z,99602.50
2022-08-16T00:17:23.877Z,99602.09
2022-08-16T00:19:53.489Z,99589.56
2022-08-16T00:22:25.124Z,99591.56
2022-08-16T00:24:53.474Z,99616.38
2022-08-16T00:27:21.592Z,99613.84
2022-08-16T00:29:48.371Z,99613.13
2022-08-16T00:32:32.990Z,99623.44
2022-08-16T00:35:01.722Z,99622.38
2022-08-16T00:37:57.451Z,99618.69
2022-08-16T00:40:33.769Z,99620.00
2022-08-16T00:43:04.669Z,99622.31
2022-08-16T00:45:57.840Z,99626.81
2022-08-16T00:48:28.997Z,99630.75
2022-08-16T00:50:58.063Z,99618.63
2022-08-16T00:53:30.822Z,99612.53
2022-08-16T00:56:05.436Z,99634.44
2022-08-16T00:58:34.983Z,99636.03
2022-08-16T01:01:03.163Z,99623.81
2022-08-16T01:03:36.223Z,99619.72
2022-08-16T01:06:32.618Z,99629.78
2022-08-16T01:08:53.956Z,99632.06
2022-08-16T01:11:23.983Z,99606.16
2022-08-16T01:13:55.029Z,99629.69
2022-08-16T01:16:25.848Z,99631.53
2022-08-16T01:19:05.668Z,99635.66
2022-08-16T01:21:44.442Z,99614.09
2022-08-16T01:24:51.525Z,99616.41
2022-08-16T01:27:25.741Z,99629.34
2022-08-16T01:30:21.790Z,99635.00
2022-08-16T01:33:01.424Z,99628.97
2022-08-16T01:35:39.849Z,99623.28
2022-08-16T01:38:33.045Z,99610.56
2022-08-16T01:41:19.920Z,99623.81
2022-08-16T01:43:53.829Z,99620.22
2022-08-16T01:46:39.153Z,99610.59
2022-08-16T01:49:14.269Z,99618.72
2022-08-16T01:51:44.601Z,99616.25
2022-08-16T01:54:13.162Z,99623.91
2022-08-16T01:56:40.486Z,99638.53
2022-08-16T01:59:15.841Z,99630.50
2022-08-16T02:01:52.556Z,99633.91
2022-08-16T02:04:48.616Z,99632.63
2022-08-16T02:07:15.847Z,99632.50
2022-08-16T02:09:43.435Z,99627.25
2022-08-16T02:12:50.273Z,99627.66
2022-08-16T02:15:12.442Z,99614.69
2022-08-16T02:17:39.008Z,99623.13
2022-08-16T02:20:11.452Z,99627.88
2022-08-16T02:22:39.438Z,99623.63
2022-08-16T02:25:11.799Z,99624.75
2022-08-16T02:27:43.561Z,99608.22
2022-08-16T02:30:37.386Z,99626.72
2022-08-16T02:33:07.517Z,99625.00
2022-08-16T02:35:53.632Z,99623.63
2022-08-16T02:38:22.550Z,99625.81
2022-08-16T02:40:49.189Z,99627.13
2022-08-16T02:43:16.215Z,99622.03
2022-08-16T02:45:43.493Z,99628.97
2022-08-16T02:48:29.246Z,99625.84
2022-08-16T02:51:06.193Z,99616.50
2022-08-16T02:53:38.825Z,99631.06
2022-08-16T02:56:09.903Z,99627.53
2022-08-16T02:58:36.953Z,99629.00
2022-08-16T03:01:03.671Z,99628.72
2022-08-16T03:04:29.799Z,99625.19
2022-08-16T03:06:41.462Z,99607.59
2022-08-16T03:09:11.830Z,99626.03
2022-08-16T03:11:40.300Z,99618.44
2022-08-16T03:14:07.832Z,99623.69
2022-08-16T03:16:39.037Z,99630.19
2022-08-16T03:19:09.493Z,99628.81
2022-08-16T03:21:38.873Z,99636.19
2022-08-16T03:24:28.211Z,99623.72
2022-08-16T03:26:58.228Z,99635.88
2022-08-16T03:29:29.987Z,99633.94
2022-08-16T03:31:59.257Z,99608.00
2022-08-16T03:34:26.270Z,99632.53
2022-08-16T03:36:53.565Z,99646.28
2022-08-16T03:39:20.718Z,99641.22
2022-08-16T03:41:50.341Z,99641.38
2022-08-16T03:44:43.312Z,99636.44
2022-08-16T03:47:04.974Z,99616.69
2022-08-16T03:49:37.346Z,99642.22
2022-08-16T03:52:04.534Z,99640.84
2022-08-16T03:54:31.182Z,99613.31
2022-08-16T03:56:58.834Z,99639.28
2022-08-16T03:59:25.762Z,99640.28
2022-08-16T04:01:56.260Z,99644.34
2022-08-16T04:04:30.982Z,99621.75
2022-08-16T04:07:00.531Z,99621.16
2022-08-16T04:09:35.233Z,99640.97
2022-08-16T04:12:11.408Z,99642.81
2022-08-16T04:14:51.722Z,99649.72
2022-08-16T04:17:18.418Z,99628.66
2022-08-16T04:19:46.512Z,99652.94
2022-08-16T04:22:14.023Z,99650.69
2022-08-16T04:24:54.814Z,99643.47
2022-08-16T04:27:24.341Z,99645.19
2022-08-16T04:29:52.130Z,99642.78
2022-08-16T04:32:19.981Z,99647.16
2022-08-16T04:34:46.694Z,99634.75
2022-08-16T04:37:14.277Z,99649.66
2022-08-16T04:39:47.065Z,99638.53
2022-08-16T04:42:26.507Z,99645.03
2022-08-16T04:44:58.417Z,99650.66
2022-08-16T04:47:33.323Z,99657.16
2022-08-16T04:50:07.865Z,99640.78
2022-08-16T04:52:36.000Z,99643.47
2022-08-16T04:55:09.735Z,99648.19
2022-08-16T04:57:39.242Z,99646.47
2022-08-16T05:00:31.634Z,99640.13
2022-08-16T05:03:01.471Z,99663.41
2022-08-16T05:05:36.832Z,99645.75
2022-08-16T05:08:28.838Z,99657.75
2022-08-16T05:10:59.965Z,99665.94
2022-08-16T05:13:39.767Z,99651.56
2022-08-16T05:16:11.844Z,99653.97
2022-08-16T05:18:43.345Z,99679.22
2022-08-16T05:21:11.234Z,99678.38
2022-08-16T05:23:39.856Z,99683.72
2022-08-16T05:26:06.707Z,99683.44
2022-08-16T05:28:47.119Z,99687.38
2022-08-16T05:31:22.000Z,99686.00
2022-08-16T05:33:53.648Z,99657.22
2022-08-16T05:36:21.740Z,99683.88
2022-08-16T05:38:48.844Z,99691.94
2022-08-16T05:41:16.799Z,99688.97
2022-08-16T05:43:47.550Z,99655.50
2022-08-16T05:46:30.037Z,99689.69
2022-08-16T05:49:05.662Z,99705.50
2022-08-16T05:51:39.853Z,99702.50
2022-08-16T05:54:14.018Z,99697.00
2022-08-16T05:56:43.013Z,99707.69
2022-08-16T05:59:10.786Z,99703.16
2022-08-16T06:01:39.087Z,99697.19
2022-08-16T06:04:13.702Z,99699.69
2022-08-16T06:06:57.436Z,99700.25
2022-08-16T06:09:42.689Z,99703.88
2022-08-16T06:12:26.915Z,99697.66
2022-08-16T06:15:01.841Z,99709.38
2022-08-16T06:17:43.935Z,99687.53
2022-08-16T06:20:24.266Z,99721.53
2022-08-16T06:22:59.088Z,99709.31
2022-08-16T06:25:36.178Z,99722.34
2022-08-16T06:28:08.631Z,99699.94
2022-08-16T06:30:36.141Z,99716.59
2022-08-16T06:33:19.776Z,99711.47
2022-08-16T06:35:49.360Z,99719.19
2022-08-16T06:38:32.460Z,99719.81
2022-08-16T06:41:05.563Z,99717.94
2022-08-16T06:43:33.147Z,99728.06
2022-08-16T06:46:03.648Z,99721.28
2022-08-16T06:48:32.654Z,99728.03
2022-08-16T06:51:01.434Z,99717.88
2022-08-16T06:53:29.750Z,99717.91
2022-08-16T06:55:58.624Z,99707.16
2022-08-16T06:58:31.501Z,99712.75
2022-08-16T07:01:00.249Z,99709.00
2022-08-16T07:03:32.176Z,99730.03
2022-08-16T07:05:59.289Z,99727.09
2022-08-16T07:08:27.738Z,99726.91
2022-08-16T07:10:56.399Z,99723.88
2022-08-16T07:13:57.903Z,99726.41
2022-08-16T07:16:15.550Z,99726.00
2022-08-16T07:18:58.967Z,99728.19
2022-08-16T07:21:45.871Z,99738.34
2022-08-16T07:24:29.894Z,99732.34
2022-08-16T07:27:00.659Z,99743.28
2022-08-16T07:29:27.825Z,99737.03
2022-08-16T07:31:58.845Z,99735.25
2022-08-16T07:34:35.164Z,99716.63
2022-08-16T07:37:08.365Z,99727.78
2022-08-16T07:39:43.340Z,99729.03
2022-08-16T07:42:20.230Z,99719.94
2022-08-16T07:44:52.772Z,99720.41
2022-08-16T07:47:24.697Z,99718.53
2022-08-16T07:49:58.853Z,99725.47
2022-08-16T07:52:29.958Z,99724.31
2022-08-16T07:54:58.041Z,99725.97
2022-08-16T07:57:25.532Z,99737.00
2022-08-16T07:59:53.063Z,99730.91
2022-08-16T08:02:20.914Z,99730.91
2022-08-16T08:04:48.475Z,99734.50
2022-08-16T08:07:16.573Z,99738.56
2022-08-16T08:09:44.054Z,99736.75
2022-08-16T08:12:31.592Z,99732.81
2022-08-16T08:14:59.683Z,99736.06
2022-08-16T08:17:42.745Z,99723.56
2022-08-16T08:20:13.345Z,99730.69
2022-08-16T08:23:00.065Z,99739.56
2022-08-16T08:25:53.978Z,99750.03
2022-08-16T08:28:17.840Z,99749.53
2022-08-16T08:30:51.032Z,99747.47
2022-08-16T08:33:28.545Z,99753.69
2022-08-16T08:35:57.924Z,99748.66
2022-08-16T08:38:44.065Z,99738.06
2022-08-16T08:41:12.777Z,99741.69
2022-08-16T08:43:41.630Z,99743.91
2022-08-16T08:46:18.174Z,99746.94
2022-08-16T08:48:59.080Z,99734.66
2022-08-16T08:51:31.804Z,99737.81
2022-08-16T08:54:06.919Z,99735.75
2022-08-16T08:56:36.275Z,99711.50
2022-08-16T08:59:13.475Z,99742.47
2022-08-16T09:01:57.087Z,99748.81
2022-08-16T09:04:28.317Z,99748.28
2022-08-16T09:06:55.982Z,99746.66
2022-08-16T09:09:25.004Z,99749.31
2022-08-16T09:11:53.532Z,99743.28
2022-08-16T09:14:25.742Z,99732.13
2022-08-16T09:17:04.095Z,99759.50
2022-08-16T09:19:40.780Z,99769.47
2022-08-16T09:22:20.990Z,99752.13
2022-08-16T09:24:52.426Z,99764.06
2022-08-16T09:27:25.067Z,99751.47
2022-08-16T09:30:00.114Z,99750.78
2022-08-16T09:32:31.159Z,99760.31
2022-08-16T09:34:59.947Z,99762.03
2022-08-16T09:37:29.490Z,99750.03
2022-08-16T09:39:59.866Z,99734.41
2022-08-16T09:42:28.727Z,99762.09
2022-08-16T09:45:12.575Z,99760.53
2022-08-16T09:47:56.922Z,99758.75
2022-08-16T09:50:36.693Z,99755.00
2022-08-16T09:53:15.465Z,99725.25
2022-08-16T09:55:49.042Z,99756.22
2022-08-16T09:58:41.279Z,99746.94
2022-08-16T10:01:04.019Z,99740.38
2022-08-16T10:03:31.713Z,99738.06
2022-08-16T10:05:58.565Z,99757.22
2022-08-16T10:08:27.479Z,99740.97
2022-08-16T10:11:13.220Z,99755.75
2022-08-16T10:13:41.592Z,99760.59
2022-08-16T10:18:56.599Z,99741.34
2022-08-16T10:21:23.940Z,99746.59
2022-08-16T10:23:53.571Z,99746.59
2022-08-16T10:27:16.798Z,99740.88
2022-08-16T10:29:11.593Z,99741.78
2022-08-16T10:31:44.362Z,99751.28
2022-08-16T10:34:31.203Z,99746.88
2022-08-16T10:37:00.664Z,99745.34
2022-08-16T10:39:32.939Z,99745.09
2022-08-16T10:42:07.993Z,99753.22
2022-08-16T10:44:34.769Z,99747.91
2022-08-16T10:47:02.238Z,99744.53
2022-08-16T10:49:29.370Z,99731.13
2022-08-16T10:52:02.426Z,99746.31
2022-08-16T10:54:59.976Z,99750.09
2022-08-16T10:57:33.148Z,99741.44
2022-08-16T10:59:59.925Z,99741.25
2022-08-16T11:02:58.197Z,99721.09
2022-08-16T11:05:16.552Z,99745.81
2022-08-16T11:07:52.114Z,99750.34
2022-08-16T11:19:06.019Z,99750.84
2022-08-16T11:22:23.085Z,99744.94
2022-08-16T11:24:41.227Z,99726.97
2022-08-16T11:27:20.125Z,99754.59
2022-08-16T11:29:49.267Z,99753.13
2022-08-16T11:32:20.277Z,99756.34
2022-08-16T11:35:15.547Z,99750.16
2022-08-16T11:40:52.767Z,99748.56
2022-08-16T11:43:23.571Z,99755.28
2022-08-16T11:45:53.799Z,99750.53
2022-08-16T11:48:21.844Z,99736.66
2022-08-16T11:50:48.454Z,99744.59
2022-08-16T11:53:17.035Z,99753.81
2022-08-16T11:55:44.244Z,99745.09
2022-08-16T11:58:14.353Z,99746.97
2022-08-16T12:00:51.375Z,99750.34
2022-08-16T12:03:24.959Z,99756.00
2022-08-16T12:05:59.586Z,99736.72
2022-08-16T12:08:27.233Z,99746.81
2022-08-16T12:10:54.499Z,99749.03
2022-08-16T12:13:26.561Z,99738.38
2022-08-16T12:15:54.553Z,99734.38
2022-08-16T12:18:21.554Z,99718.03
2022-08-16T12:20:48.289Z,99724.25
2022-08-16T12:23:15.211Z,99722.72
2022-08-16T12:25:44.140Z,99745.06
2022-08-16T12:28:10.853Z,99730.41
2022-08-16T12:30:42.871Z,99709.34
2022-08-16T12:33:12.269Z,99713.69
2022-08-16T12:35:40.634Z,99735.34
2022-08-16T12:38:35.771Z,99724.91
2022-08-16T12:40:57.047Z,99725.38
2022-08-16T12:43:25.477Z,99724.34
2022-08-16T12:45:55.150Z,99728.44
2022-08-16T12:48:45.231Z,99734.66
2022-08-16T12:51:19.861Z,99709.28
2022-08-16T12:53:52.664Z,99729.72
2022-08-16T12:56:21.785Z,99728.97
2022-08-16T12:58:53.276Z,99716.81
2022-08-16T13:01:26.768Z,99709.66
2022-08-16T13:04:11.822Z,99697.09
2022-08-16T13:06:44.294Z,99701.28
2022-08-16T13:09:23.730Z,99714.28
2022-08-16T13:12:07.265Z,99706.53
2022-08-16T13:14:41.213Z,99680.28
2022-08-16T13:17:17.140Z,99707.13
2022-08-16T13:20:07.706Z,99707.31
2022-08-16T13:22:42.912Z,99704.22
2022-08-16T13:25:18.878Z,99697.25
2022-08-16T13:28:15.035Z,99710.91
2022-08-16T13:30:52.316Z,99708.34
2022-08-16T13:33:29.250Z,99698.53
2022-08-16T13:35:59.176Z,99699.19
2022-08-16T13:38:30.220Z,99682.41
2022-08-16T13:40:59.898Z,99689.91
2022-08-16T13:43:32.599Z,99699.59
2022-08-16T13:46:04.622Z,99692.28
2022-08-16T13:48:42.673Z,99689.94
2022-08-16T13:51:17.006Z,99695.00
2022-08-16T13:53:59.060Z,99695.84
2022-08-16T13:56:34.227Z,99679.91
2022-08-16T13:59:06.562Z,99673.81
2022-08-16T14:01:47.065Z,99674.03
2022-08-16T14:04:26.078Z,99692.91
2022-08-16T14:06:54.683Z,99682.44
2022-08-16T14:09:21.551Z,99675.47
2022-08-16T14:11:49.523Z,99683.19
2022-08-16T14:14:28.660Z,99662.63
2022-08-16T14:17:01.046Z,99682.75
2022-08-16T14:19:29.569Z,99682.28
2022-08-16T14:22:14.955Z,99684.31
2022-08-16T14:24:47.083Z,99680.66
2022-08-16T14:27:18.331Z,99675.41
2022-08-16T14:29:49.256Z,99674.13
2022-08-16T14:32:32.600Z,99673.50
2022-08-16T14:35:07.273Z,99668.69
2022-08-16T14:37:34.579Z,99666.25
2022-08-16T14:40:01.324Z,99667.72
2022-08-16T14:42:30.020Z,99671.75
2022-08-16T14:44:57.754Z,99644.16
2022-08-16T14:47:34.338Z,99656.53
2022-08-16T14:50:01.970Z,99644.97
2022-08-16T14:52:54.061Z,99640.16
2022-08-16T14:55:15.945Z,99654.41
2022-08-16T14:57:43.459Z,99650.06
2022-08-16T15:00:13.175Z,99638.34
2022-08-16T15:02:42.629Z,99645.66
2022-08-16T15:05:12.690Z,99638.09
2022-08-16T15:07:42.137Z,99643.53
2022-08-16T15:10:21.497Z,99640.78
2022-08-16T15:12:55.471Z,99642.94
2022-08-16T15:15:24.831Z,99636.59
2022-08-16T15:17:56.081Z,99642.06
2022-08-16T15:20:26.805Z,99630.91
2022-08-16T15:22:54.667Z,99638.66
2022-08-16T15:25:32.011Z,99641.13
2022-08-16T15:28:04.708Z,99638.44
2022-08-16T15:30:59.568Z,99629.41
2022-08-16T15:33:26.894Z,99641.19
2022-08-16T15:35:55.504Z,99635.31
2022-08-16T15:38:55.179Z,99645.25
2022-08-16T15:41:27.062Z,99637.06
2022-08-16T15:44:05.413Z,99644.44
2022-08-16T15:46:54.931Z,99649.25
2022-08-16T15:49:25.323Z,99630.19
2022-08-16T15:52:14.959Z,99643.19
2022-08-16T15:54:53.146Z,99645.69
2022-08-16T15:57:27.144Z,99627.25
2022-08-16T15:59:56.316Z,99650.09
2022-08-16T16:02:33.454Z,99645.50
2022-08-16T16:05:04.246Z,99644.66
2022-08-16T16:07:31.956Z,99639.19
2022-08-16T16:10:00.463Z,99645.69
2022-08-16T16:12:51.689Z,99654.28
2022-08-16T16:15:20.280Z,99644.03
2022-08-16T16:17:51.090Z,99648.00
2022-08-16T16:20:24.386Z,99632.47
2022-08-16T16:22:56.607Z,99645.06
2022-08-16T16:25:24.413Z,99629.75
2022-08-16T16:27:55.894Z,99631.22
2022-08-16T16:30:37.154Z,99641.72
2022-08-16T16:33:21.033Z,99643.41
2022-08-16T16:35:55.579Z,99641.50
2022-08-16T16:38:28.739Z,99632.28
2022-08-16T16:40:55.637Z,99615.47
2022-08-16T16:43:26.096Z,99639.63
2022-08-16T16:45:58.801Z,99630.81
2022-08-16T16:48:29.705Z,99643.81
2022-08-16T16:51:09.083Z,99642.13
2022-08-16T16:53:42.123Z,99637.94
2022-08-16T16:56:19.654Z,99635.00
2022-08-16T16:58:56.417Z,99630.59
2022-08-16T17:01:41.173Z,99634.16
2022-08-16T17:04:27.481Z,99638.38
2022-08-16T17:06:58.988Z,99645.91
2022-08-16T17:09:25.948Z,99635.63
2022-08-16T17:11:55.281Z,99641.09
2022-08-16T17:14:42.629Z,99627.66
2022-08-16T17:17:13.177Z,99634.81
2022-08-16T17:19:41.915Z,99631.22
2022-08-16T17:22:15.609Z,99642.53
2022-08-16T17:24:50.307Z,99640.41
2022-08-16T17:27:32.642Z,99642.72
2022-08-16T17:30:29.419Z,99636.84
2022-08-16T17:33:11.344Z,99638.06
2022-08-16T17:35:55.123Z,99644.75
2022-08-16T17:38:38.561Z,99638.84
2022-08-16T17:41:07.949Z,99643.59
2022-08-16T17:43:37.939Z,99639.38
2022-08-16T17:46:50.818Z,99620.84
2022-08-16T17:48:59.947Z,99634.06
2022-08-16T17:51:28.606Z,99633.03
2022-08-16T17:53:55.622Z,99650.66
2022-08-16T17:56:22.471Z,99634.72
2022-08-16T17:58:49.024Z,99647.94
2022-08-16T18:01:16.079Z,99653.13
2022-08-16T18:04:08.833Z,99654.81
2022-08-16T18:06:29.567Z,99648.91
2022-08-16T18:09:02.507Z,99647.41
2022-08-16T18:11:33.804Z,99651.78
2022-08-16T18:14:00.493Z,99633.25
2022-08-16T18:16:27.107Z,99646.84
2022-08-16T18:18:53.753Z,99653.97
2022-08-16T18:21:38.954Z,99665.44
2022-08-16T18:24:06.036Z,99660.34
2022-08-16T18:26:33.036Z,99662.78
2022-08-16T18:28:59.733Z,99632.13
2022-08-16T18:31:28.890Z,99656.22
2022-08-16T18:33:56.083Z,99664.78
2022-08-16T18:36:23.928Z,99655.75
2022-08-16T18:38:52.184Z,99666.81
2022-08-16T18:41:21.152Z,99676.78
2022-08-16T18:44:22.481Z,99662.88
2022-08-16T18:46:34.463Z,99660.66
2022-08-16T18:49:01.100Z,99663.50
2022-08-16T18:51:27.730Z,99668.09
2022-08-16T18:53:54.320Z,99669.13
2022-08-16T18:56:21.321Z,99665.97
2022-08-16T18:58:47.901Z,99661.50
2022-08-16T19:01:14.616Z,99662.06
2022-08-16T19:03:41.404Z,99672.94
2022-08-16T19:06:13.656Z,99680.00
2022-08-16T19:08:42.443Z,99675.13
2022-08-16T19:11:20.042Z,99681.78
2022-08-16T19:13:46.683Z,99662.53
2022-08-16T19:16:14.537Z,99684.53
2022-08-16T19:18:41.381Z,99664.22
2022-08-16T19:21:09.504Z,99692.03
2022-08-16T19:23:38.447Z,99688.59
2022-08-16T19:26:11.041Z,99686.97
2022-08-16T19:28:59.089Z,99689.16
2022-08-16T19:31:32.639Z,99695.69
2022-08-16T19:34:00.547Z,99703.56
2022-08-16T19:36:35.729Z,99682.75
2022-08-16T19:39:07.142Z,99695.44
2022-08-16T19:41:37.759Z,99688.63
2022-08-16T19:44:05.663Z,99690.38
2022-08-16T19:46:32.593Z,99705.91
2022-08-16T19:49:00.626Z,99711.22
2022-08-16T19:51:27.691Z,99706.06
2022-08-16T19:53:54.770Z,99671.97
2022-08-16T19:56:23.794Z,99700.66
2022-08-16T19:59:17.611Z,99710.53
2022-08-16T20:01:41.979Z,99707.00
2022-08-16T20:04:12.250Z,99726.81
2022-08-16T20:06:39.524Z,99731.59
2022-08-16T20:09:07.052Z,99738.38
2022-08-16T20:11:34.928Z,99715.97
2022-08-16T20:14:02.536Z,99734.84
2022-08-16T20:16:29.594Z,99725.44
2022-08-16T20:18:56.206Z,99732.88
2022-08-16T20:21:22.865Z,99731.88
2022-08-16T20:23:49.589Z,99710.47
2022-08-16T20:26:16.289Z,99728.69
2022-08-16T20:28:53.947Z,99743.25
2022-08-16T20:31:23.196Z,99742.97
2022-08-16T20:33:51.805Z,99734.03
2022-08-16T20:36:18.374Z,99738.97
2022-08-16T20:38:47.431Z,99743.53
2022-08-16T20:41:15.224Z,99751.16
2022-08-16T20:43:42.028Z,99745.41
2022-08-16T20:46:08.718Z,99752.69
2022-08-16T20:48:35.511Z,99757.81
2022-08-16T20:51:02.150Z,99753.06
2022-08-16T20:53:28.830Z,99760.31
2022-08-16T20:55:55.464Z,99753.28
2022-08-16T20:58:21.971Z,99741.16
2022-08-16T21:00:48.609Z,99765.78
2022-08-16T21:03:15.207Z,99762.78
2022-08-16T21:05:43.833Z,99767.34
2022-08-16T21:08:51.117Z,99761.78
2022-08-16T21:10:57.763Z,99760.09
2022-08-16T21:13:30.784Z,99762.97
2022-08-16T21:15:58.755Z,99754.22
2022-08-16T21:18:25.496Z,99750.84
2022-08-16T21:20:52.546Z,99767.53
2022-08-16T21:23:19.682Z,99768.59
2022-08-16T21:25:58.423Z,99748.13
2022-08-16T21:28:41.749Z,99760.94
2022-08-16T21:31:11.412Z,99776.00
2022-08-16T21:33:38.852Z,99773.63
2022-08-16T21:36:05.786Z,99768.41
2022-08-16T21:38:32.379Z,99773.81
2022-08-16T21:41:00.287Z,99754.38
2022-08-16T21:43:31.652Z,99778.66
2022-08-16T21:45:58.819Z,99782.53
2022-08-16T21:48:35.142Z,99753.84
2022-08-16T21:51:14.722Z,99755.88
2022-08-16T21:53:43.350Z,99758.06
2022-08-16T21:56:16.798Z,99778.47
2022-08-16T21:58:44.718Z,99770.38
2022-08-16T22:01:11.485Z,99755.84
2022-08-16T22:03:38.094Z,99759.84
2022-08-16T22:06:13.278Z,99761.00
2022-08-16T22:08:50.148Z,99776.59
2022-08-16T22:11:19.627Z,99783.53
2022-08-16T22:13:51.494Z,99764.19
2022-08-16T22:16:26.094Z,99786.84
2022-08-16T22:18:52.916Z,99786.47
2022-08-16T22:21:19.784Z,99783.44
2022-08-16T22:23:56.701Z,99785.47
2022-08-16T22:26:31.060Z,99780.38
2022-08-16T22:29:04.580Z,99745.06
2022-08-16T22:31:31.411Z,99774.78
2022-08-16T22:33:58.163Z,99783.03
2022-08-16T22:36:28.551Z,99781.34
2022-08-16T22:39:00.688Z,99765.78
2022-08-16T22:41:28.848Z,99784.72
2022-08-16T22:43:55.712Z,99784.50
2022-08-16T22:46:22.576Z,99772.19
2022-08-16T22:48:50.537Z,99790.44
2022-08-16T22:51:19.341Z,99789.91
2022-08-16T22:53:46.077Z,99783.31
2022-08-16T22:56:15.108Z,99758.91
2022-08-16T22:58:41.910Z,99771.72
2022-08-16T23:01:09.922Z,99768.13
2022-08-16T23:03:37.868Z,99766.88
2022-08-16T23:06:06.677Z,99788.06
2022-08-16T23:08:40.648Z,99772.94
2022-08-16T23:11:10.590Z,99791.84
2022-08-16T23:13:37.659Z,99785.06
2022-08-16T23:16:10.843Z,99787.41
2022-08-16T23:18:39.162Z,99770.19
2022-08-16T23:21:09.376Z,99759.00
2022-08-16T23:23:37.255Z,99771.19
2022-08-16T23:26:46.565Z,99778.06
2022-08-16T23:28:51.950Z,99782.44
2022-08-16T23:31:18.740Z,99773.84
2022-08-16T23:33:45.979Z,99782.25
2022-08-16T23:36:13.038Z,99779.56
2022-08-16T23:38:39.839Z,99776.53
2022-08-16T23:41:11.375Z,99754.69
2022-08-16T23:43:41.841Z,99746.69
2022-08-16T23:46:11.788Z,99765.31
2022-08-16T23:49:56.907Z,99758.00
2022-08-16T23:51:24.897Z,99742.28
2022-08-16T23:53:51.474Z,99758.81
2022-08-16T23:56:20.368Z,99761.50
2022-08-16T23:58:49.328Z,99752.03
